Maywood Park, Oregon
Current Conditions -  °F | °C
As of 9:53 AM on Monday 24 Nov 2014 (Local Time) from KPDX Reporting Station
Broken Clouds Broken Clouds  
Wind Chill: 46°   Ceiling: 20000
Heat Index: 49°   Visibility: 10mi
Dew Point: 47°   Wind: 7mph
Humidity: 93%   Direction: 100°E
Pressure: 30.38"   Gusts: NA
Location:  45.5492°N, 122.558°W
Report Text: KPDX 241753Z 10006KT 10SM FEW006 FEW055 BKN200 09/08 A3038 RMK AO2 SLP288 T00940083 10094 20083 53003
Loading
Personal Weather Stations






























Interactive Weather Map New forecast layout! Learn more

10-Day Weather Forecast

Advertisements
Track Severe Weather on mobile